createdAt,value
2023-01-12T00:02:01.724Z,6.25
2023-01-12T00:05:03.988Z,5.43
2023-01-12T00:08:06.207Z,6.07
2023-01-12T00:11:08.654Z,5.50
2023-01-12T00:14:10.829Z,6.00
2023-01-12T00:17:16.866Z,5.28
2023-01-12T00:20:18.967Z,5.35
2023-01-12T00:23:22.122Z,5.82
2023-01-12T00:26:24.232Z,5.40
2023-01-12T00:29:27.669Z,5.10
2023-01-12T00:32:29.826Z,5.82
2023-01-12T00:35:31.998Z,5.68
2023-01-12T00:38:38.382Z,5.90
2023-01-12T00:42:00.171Z,5.13
2023-01-12T00:45:20.735Z,4.97
2023-01-12T00:48:23.620Z,4.53
2023-01-12T00:51:25.804Z,4.82
2023-01-12T00:54:27.953Z,4.30
2023-01-12T00:57:30.218Z,5.05
2023-01-12T01:00:32.379Z,4.25
2023-01-12T01:03:35.553Z,4.88
2023-01-12T01:06:39.064Z,5.63
2023-01-12T01:09:41.348Z,4.68
2023-01-12T01:12:43.577Z,5.07
2023-01-12T01:15:45.725Z,4.78
2023-01-12T01:18:47.915Z,5.60
2023-01-12T01:21:50.082Z,5.07
2023-01-12T01:24:52.230Z,4.95
2023-01-12T01:27:54.355Z,4.40
2023-01-12T01:31:07.912Z,4.80
2023-01-12T01:34:10.045Z,4.47
2023-01-12T01:37:13.115Z,4.38
2023-01-12T01:40:15.665Z,5.43
2023-01-12T01:43:20.483Z,5.07
2023-01-12T01:46:35.104Z,5.05
2023-01-12T01:49:52.738Z,4.55
2023-01-12T01:53:05.269Z,4.70
2023-01-12T01:56:12.508Z,4.80
2023-01-12T01:59:19.346Z,4.78
2023-01-12T02:02:22.817Z,4.85
2023-01-12T02:05:28.398Z,5.18
2023-01-12T02:08:58.536Z,5.20
2023-01-12T02:12:20.354Z,5.10
2023-01-12T02:15:45.482Z,5.03
2023-01-12T02:19:05.960Z,4.65
2023-01-12T02:22:36.080Z,5.47
2023-01-12T02:25:56.069Z,4.15
2023-01-12T02:29:16.161Z,5.78
2023-01-12T02:32:27.032Z,5.43
2023-01-12T02:35:44.564Z,4.68
2023-01-12T02:39:18.890Z,4.22
2023-01-12T02:42:47.737Z,4.80
2023-01-12T02:46:01.759Z,4.65
2023-01-12T02:49:15.145Z,4.10
2023-01-12T02:52:19.579Z,3.88
2023-01-12T02:55:22.784Z,4.68
2023-01-12T02:58:27.327Z,3.88
2023-01-12T03:01:31.280Z,4.28
2023-01-12T03:04:33.788Z,4.63
2023-01-12T03:08:00.464Z,4.65
2023-01-12T03:11:07.728Z,4.20
2023-01-12T03:14:11.175Z,4.35
2023-01-12T03:17:31.285Z,4.03
2023-01-12T03:20:36.887Z,3.90
2023-01-12T03:23:47.465Z,4.22
2023-01-12T03:26:56.199Z,4.75
2023-01-12T03:30:05.883Z,4.25
2023-01-12T03:33:09.580Z,4.50
2023-01-12T03:36:14.656Z,3.90
2023-01-12T03:39:42.497Z,3.75
2023-01-12T03:43:04.762Z,4.20
2023-01-12T03:46:09.603Z,3.92
2023-01-12T03:49:16.663Z,3.97
2023-01-12T03:52:20.592Z,4.00
2023-01-12T03:55:24.375Z,4.05
2023-01-12T03:58:26.732Z,3.78
2023-01-12T04:01:29.195Z,3.85
2023-01-12T04:04:31.504Z,4.07
2023-01-12T04:07:33.660Z,4.22
2023-01-12T04:10:35.906Z,3.78
2023-01-12T04:13:38.077Z,4.55
2023-01-12T04:16:40.269Z,4.47
2023-01-12T04:19:42.690Z,4.35
2023-01-12T04:22:45.781Z,4.68
2023-01-12T04:25:47.859Z,3.40
2023-01-12T04:28:50.059Z,4.45
2023-01-12T04:31:52.275Z,4.60
2023-01-12T04:34:54.464Z,4.13
2023-01-12T04:37:56.722Z,4.45
2023-01-12T04:40:58.840Z,4.85
2023-01-12T04:44:00.943Z,4.70
2023-01-12T04:47:03.134Z,4.63
2023-01-12T04:50:05.925Z,4.35
2023-01-12T04:53:10.988Z,4.90
2023-01-12T04:56:13.162Z,5.18
2023-01-12T04:59:15.437Z,5.00
2023-01-12T05:02:17.606Z,4.97
2023-01-12T05:05:19.679Z,4.28
2023-01-12T05:08:40.444Z,4.80
2023-01-12T05:11:42.609Z,4.43
2023-01-12T05:14:44.756Z,5.07
2023-01-12T05:17:46.876Z,4.55
2023-01-12T05:20:49.613Z,4.80
2023-01-12T05:23:52.950Z,5.38
2023-01-12T05:26:55.199Z,4.97
2023-01-12T05:29:59.671Z,5.15
2023-01-12T05:33:01.900Z,5.28
2023-01-12T05:36:09.349Z,4.93
2023-01-12T05:39:11.641Z,5.43
2023-01-12T05:42:52.339Z,5.43
2023-01-12T05:45:54.526Z,4.72
2023-01-12T05:48:58.097Z,5.60
2023-01-12T05:52:00.305Z,5.63
2023-01-12T05:55:02.711Z,6.50
2023-01-12T05:58:04.817Z,5.85
2023-01-12T06:01:11.003Z,5.93
2023-01-12T06:04:13.301Z,6.53
2023-01-12T06:07:16.536Z,6.70
2023-01-12T06:10:18.674Z,6.43
2023-01-12T06:13:39.614Z,6.45
2023-01-12T06:16:43.085Z,6.20
2023-01-12T06:19:45.219Z,5.97
2023-01-12T06:22:47.414Z,6.45
2023-01-12T06:25:49.603Z,6.60
2023-01-12T06:28:51.790Z,6.30
2023-01-12T06:31:53.990Z,6.60
2023-01-12T06:35:01.598Z,5.95
2023-01-12T06:38:09.210Z,6.22
2023-01-12T06:41:31.641Z,6.50
2023-01-12T06:44:33.781Z,6.50
2023-01-12T06:47:48.863Z,7.18
2023-01-12T06:50:50.990Z,6.70
2023-01-12T06:53:53.341Z,7.57
2023-01-12T06:56:55.846Z,6.82
2023-01-12T06:59:57.939Z,7.03
2023-01-12T07:03:00.066Z,7.28
2023-01-12T07:06:02.582Z,6.90
2023-01-12T07:09:06.214Z,7.25
2023-01-12T07:12:08.439Z,7.60
2023-01-12T07:15:11.112Z,6.78
2023-01-12T07:18:13.285Z,7.43
2023-01-12T07:21:16.923Z,7.03
2023-01-12T07:24:19.183Z,7.13
2023-01-12T07:27:21.299Z,6.88
2023-01-12T07:30:25.069Z,8.00
2023-01-12T07:33:27.621Z,6.63
2023-01-12T07:36:29.948Z,7.40
2023-01-12T07:39:32.087Z,6.93
2023-01-12T07:42:34.245Z,7.25
2023-01-12T07:45:37.753Z,7.63
2023-01-12T07:48:39.896Z,6.30
2023-01-12T07:51:42.107Z,8.43
2023-01-12T07:54:44.268Z,8.10
2023-01-12T07:57:57.566Z,7.30
2023-01-12T08:01:00.619Z,8.73
2023-01-12T08:04:02.860Z,7.75
2023-01-12T08:07:05.072Z,8.02
2023-01-12T08:10:07.811Z,7.68
2023-01-12T08:13:10.197Z,8.52
2023-01-12T08:16:20.742Z,9.48
2023-01-12T08:19:27.325Z,7.90
2023-01-12T08:22:37.061Z,9.10
2023-01-12T08:25:44.906Z,8.20
2023-01-12T08:29:13.742Z,8.25
2023-01-12T08:32:18.836Z,8.63
2023-01-12T08:35:23.806Z,8.85
2023-01-12T08:38:26.036Z,7.43
2023-01-12T08:41:34.278Z,6.97
2023-01-12T08:44:36.570Z,8.02
2023-01-12T08:47:40.802Z,7.38
2023-01-12T08:50:42.873Z,8.07
2023-01-12T08:53:45.062Z,8.48
2023-01-12T08:56:51.248Z,7.38
2023-01-12T08:59:53.481Z,8.23
2023-01-12T09:02:55.626Z,7.70
2023-01-12T09:05:57.786Z,7.45
2023-01-12T09:09:01.925Z,8.40
2023-01-12T09:12:05.706Z,7.38
2023-01-12T09:15:08.362Z,7.82
2023-01-12T09:18:10.746Z,6.35
2023-01-12T09:21:16.035Z,6.65
2023-01-12T09:24:18.364Z,6.50
2023-01-12T09:27:20.483Z,6.43
2023-01-12T09:30:22.810Z,7.20
2023-01-12T09:33:24.944Z,6.45
2023-01-12T09:36:29.740Z,6.72
2023-01-12T09:39:31.907Z,7.03
2023-01-12T09:42:53.814Z,7.90
2023-01-12T09:46:14.365Z,7.85
2023-01-12T09:49:18.629Z,7.25
2023-01-12T09:52:45.465Z,6.65
2023-01-12T09:56:02.702Z,7.00
2023-01-12T09:59:13.624Z,7.25
2023-01-12T10:02:16.363Z,6.80
2023-01-12T10:05:26.014Z,6.68
2023-01-12T10:08:44.283Z,7.15
2023-01-12T10:11:58.194Z,7.40
2023-01-12T10:15:23.940Z,6.78
2023-01-12T10:18:41.345Z,5.95
2023-01-12T10:21:43.970Z,7.30
2023-01-12T10:24:47.008Z,7.35
2023-01-12T10:27:52.235Z,6.50
2023-01-12T10:30:56.506Z,7.10
2023-01-12T10:34:05.014Z,7.25
2023-01-12T10:37:11.479Z,6.65
2023-01-12T10:40:21.958Z,7.40
2023-01-12T10:43:31.905Z,6.95
2023-01-12T10:46:36.099Z,6.38
2023-01-12T10:49:38.472Z,7.40
2023-01-12T10:52:41.495Z,7.85
2023-01-12T10:55:44.325Z,6.72
2023-01-12T10:58:57.680Z,7.43
2023-01-12T11:02:07.066Z,6.75
2023-01-12T11:05:31.429Z,6.75
2023-01-12T11:08:33.539Z,7.43
2023-01-12T11:11:35.729Z,7.05
2023-01-12T11:14:38.283Z,6.38
2023-01-12T11:17:56.704Z,6.90
2023-01-12T11:21:08.016Z,5.25
2023-01-12T11:24:53.108Z,6.40
2023-01-12T11:28:04.305Z,6.30
2023-01-12T11:31:19.600Z,6.53
2023-01-12T11:34:32.267Z,6.13
2023-01-12T11:37:38.349Z,7.20
2023-01-12T11:40:41.655Z,5.97
2023-01-12T11:44:30.493Z,5.93
2023-01-12T11:47:41.913Z,6.18
2023-01-12T11:50:47.623Z,6.75
2023-01-12T11:53:50.145Z,6.53
2023-01-12T11:57:16.517Z,6.40
2023-01-12T12:00:30.403Z,5.28
2023-01-12T12:03:44.338Z,6.15
2023-01-12T12:06:49.166Z,6.28
2023-01-12T12:10:25.435Z,5.75
2023-01-12T12:13:33.282Z,6.03
2023-01-12T12:16:46.721Z,5.68
2023-01-12T12:20:06.440Z,6.78
2023-01-12T12:23:14.468Z,6.65
2023-01-12T12:26:26.255Z,6.57
2023-01-12T12:29:37.425Z,5.78
2023-01-12T12:32:58.345Z,6.30
2023-01-12T12:36:23.365Z,5.78
2023-01-12T12:39:37.756Z,6.30
2023-01-12T12:43:15.147Z,6.22
2023-01-12T12:46:40.829Z,6.13
2023-01-12T12:49:42.989Z,6.18
2023-01-12T12:52:51.329Z,6.53
2023-01-12T12:55:57.293Z,6.40
2023-01-12T12:59:03.148Z,6.30
2023-01-12T13:02:25.358Z,6.75
2023-01-12T13:05:45.430Z,5.93
2023-01-12T13:08:51.190Z,6.40
2023-01-12T13:11:54.850Z,6.75
2023-01-12T13:15:23.098Z,7.07
2023-01-12T13:18:51.770Z,6.15
2023-01-12T13:21:56.372Z,6.45
2023-01-12T13:25:01.541Z,7.15
2023-01-12T13:28:03.638Z,6.07
2023-01-12T13:31:32.090Z,6.78
2023-01-12T13:34:37.150Z,6.43
2023-01-12T13:37:49.339Z,6.80
2023-01-12T13:40:55.890Z,6.00
2023-01-12T13:43:58.687Z,6.50
2023-01-12T13:47:09.603Z,6.05
2023-01-12T13:50:19.931Z,5.40
2023-01-12T13:56:32.563Z,5.45
2023-01-12T13:59:35.324Z,6.65
2023-01-12T14:02:39.431Z,6.40
2023-01-12T14:05:53.199Z,5.05
2023-01-12T14:09:19.785Z,5.53
2023-01-12T14:12:27.619Z,5.80
2023-01-12T14:15:59.406Z,6.20
2023-01-12T14:19:02.227Z,5.70
2023-01-12T14:22:05.031Z,5.32
2023-01-12T14:25:20.675Z,5.00
2023-01-12T14:28:30.998Z,6.07
2023-01-12T14:34:37.893Z,5.15
2023-01-12T14:37:40.126Z,6.63
2023-01-12T14:40:58.329Z,6.60
2023-01-12T14:44:19.309Z,6.32
2023-01-12T14:47:30.799Z,6.50
2023-01-12T14:50:33.558Z,6.43
2023-01-12T14:53:40.773Z,5.72
2023-01-12T14:57:03.696Z,5.30
2023-01-12T15:00:06.521Z,6.70
2023-01-12T15:03:26.310Z,7.63
2023-01-12T15:06:36.829Z,6.55
2023-01-12T15:09:55.851Z,6.57
2023-01-12T15:13:17.976Z,7.43
2023-01-12T15:16:38.615Z,8.05
2023-01-12T15:19:59.585Z,6.75
2023-01-12T15:23:27.683Z,7.30
2023-01-12T15:26:30.170Z,8.15
2023-01-12T15:29:32.246Z,8.10
2023-01-12T15:32:51.623Z,8.40
2023-01-12T15:35:53.795Z,6.93
2023-01-12T15:38:55.921Z,7.18
2023-01-12T15:42:16.210Z,8.80
2023-01-12T15:48:39.401Z,7.45
2023-01-12T15:51:49.095Z,7.70
2023-01-12T15:54:51.918Z,7.80
2023-01-12T15:57:54.053Z,9.15
2023-01-12T16:00:56.925Z,9.88
2023-01-12T16:04:28.457Z,9.07
2023-01-12T16:07:21.931Z,8.63
2023-01-12T16:10:24.260Z,11.10
2023-01-12T16:13:26.338Z,10.80
2023-01-12T16:16:29.255Z,11.43
2023-01-12T16:19:32.113Z,11.75
2023-01-12T16:22:34.336Z,12.15
2023-01-12T16:25:38.237Z,12.40
2023-01-12T16:28:40.665Z,12.00
2023-01-12T16:31:42.861Z,12.43
2023-01-12T16:34:45.971Z,13.23
2023-01-12T16:37:54.674Z,13.60
2023-01-12T16:40:57.109Z,12.50
2023-01-12T16:43:59.312Z,13.70
2023-01-12T16:47:01.426Z,15.77
2023-01-12T16:50:03.864Z,17.25
2023-01-12T16:53:06.047Z,17.80
2023-01-12T16:56:10.682Z,16.85
2023-01-12T16:59:13.129Z,17.83
2023-01-12T17:02:17.014Z,17.45
2023-01-12T17:05:20.420Z,16.58
2023-01-12T17:08:22.855Z,17.67
2023-01-12T17:11:26.050Z,15.57
2023-01-12T17:14:33.356Z,16.10
2023-01-12T17:17:36.287Z,14.88
2023-01-12T17:20:38.455Z,14.07
2023-01-12T17:23:43.006Z,14.43
2023-01-12T17:26:46.096Z,15.50
2023-01-12T17:29:49.158Z,15.55
2023-01-12T17:32:51.296Z,14.38
2023-01-12T17:35:53.603Z,14.95
2023-01-12T17:38:55.741Z,14.80
2023-01-12T17:42:16.697Z,14.15
2023-01-12T17:45:18.893Z,12.43
2023-01-12T17:48:21.111Z,13.77
2023-01-12T17:51:23.226Z,12.15
2023-01-12T17:54:25.351Z,13.45
2023-01-12T17:57:28.467Z,14.52
2023-01-12T18:00:32.063Z,13.95
2023-01-12T18:03:34.340Z,13.00
2023-01-12T18:06:36.743Z,14.02
2023-01-12T18:09:39.032Z,12.30
2023-01-12T18:12:41.271Z,13.05
2023-01-12T18:15:43.424Z,13.05
2023-01-12T18:18:46.254Z,12.18
2023-01-12T18:21:50.155Z,12.73
2023-01-12T18:24:52.337Z,13.43
2023-01-12T18:27:54.412Z,13.57
2023-01-12T18:31:08.619Z,13.05
2023-01-12T18:34:11.062Z,12.95
2023-01-12T18:37:13.852Z,11.88
2023-01-12T18:40:16.122Z,13.55
2023-01-12T18:43:18.279Z,12.98
2023-01-12T18:46:20.874Z,13.00
2023-01-12T18:49:24.766Z,13.70
2023-01-12T18:52:45.365Z,12.13
2023-01-12T18:55:48.355Z,11.70
2023-01-12T18:58:50.958Z,11.38
2023-01-12T19:01:53.161Z,11.15
2023-01-12T19:05:14.013Z,14.02
2023-01-12T19:08:34.567Z,13.00
2023-01-12T19:11:37.835Z,12.20
2023-01-12T19:14:58.481Z,11.77
2023-01-12T19:18:01.058Z,11.18
2023-01-12T19:21:27.265Z,13.18
2023-01-12T19:24:47.813Z,13.63
2023-01-12T19:28:09.024Z,11.95
2023-01-12T19:31:12.261Z,13.48
2023-01-12T19:34:14.467Z,12.30
2023-01-12T19:37:16.762Z,12.90
2023-01-12T19:40:26.179Z,13.43
2023-01-12T19:43:30.016Z,14.87
2023-01-12T19:46:33.303Z,12.30
2023-01-12T19:49:35.504Z,15.10
2023-01-12T19:52:39.024Z,14.63
2023-01-12T19:55:42.473Z,14.25
2023-01-12T19:58:45.157Z,15.40
2023-01-12T20:01:47.343Z,14.88
2023-01-12T20:04:49.471Z,13.60
2023-01-12T20:07:55.248Z,15.40
2023-01-12T20:10:59.097Z,13.38
2023-01-12T20:14:01.237Z,13.82
2023-01-12T20:17:05.446Z,14.93
2023-01-12T20:20:08.648Z,12.60
2023-01-12T20:23:11.907Z,13.75
2023-01-12T20:26:15.725Z,13.52
2023-01-12T20:29:18.349Z,14.57
2023-01-12T20:32:20.850Z,15.15
2023-01-12T20:35:23.915Z,16.25
2023-01-12T20:38:26.092Z,14.07
2023-01-12T20:41:28.240Z,14.30
2023-01-12T20:44:30.614Z,14.77
2023-01-12T20:47:33.791Z,14.30
2023-01-12T20:50:36.083Z,15.88
2023-01-12T20:53:38.713Z,15.77
2023-01-12T20:56:40.829Z,15.82
2023-01-12T20:59:43.068Z,14.20
2023-01-12T21:02:45.375Z,15.02
2023-01-12T21:05:48.340Z,16.27
2023-01-12T21:08:50.840Z,14.75
2023-01-12T21:11:53.090Z,15.68
2023-01-12T21:14:55.390Z,14.30
2023-01-12T21:17:58.017Z,15.18
2023-01-12T21:21:00.939Z,14.73
2023-01-12T21:24:03.276Z,16.30
2023-01-12T21:27:05.403Z,15.65
2023-01-12T21:30:08.587Z,15.98
2023-01-12T21:33:11.578Z,14.80
2023-01-12T21:36:14.457Z,15.13
2023-01-12T21:39:16.680Z,14.70
2023-01-12T21:42:37.356Z,13.90
2023-01-12T21:45:44.969Z,16.58
2023-01-12T21:48:47.169Z,14.75
2023-01-12T21:51:49.340Z,16.88
2023-01-12T21:54:51.409Z,15.68
2023-01-12T21:57:55.273Z,15.15
2023-01-12T22:00:58.160Z,15.10
2023-01-12T22:04:00.339Z,14.23
2023-01-12T22:07:02.396Z,15.27
2023-01-12T22:10:19.706Z,15.45
2023-01-12T22:13:21.963Z,16.33
2023-01-12T22:16:24.177Z,15.80
2023-01-12T22:19:26.293Z,15.98
2023-01-12T22:22:28.832Z,15.23
2023-01-12T22:25:31.016Z,14.98
2023-01-12T22:28:34.166Z,14.98
2023-01-12T22:31:36.299Z,15.75
2023-01-12T22:34:38.506Z,14.38
2023-01-12T22:37:41.392Z,14.93
2023-01-12T22:40:43.590Z,17.52
2023-01-12T22:43:47.884Z,15.95
2023-01-12T22:46:50.074Z,17.15
2023-01-12T22:49:52.208Z,15.93
2023-01-12T22:52:55.959Z,16.38
2023-01-12T22:56:03.405Z,15.68
2023-01-12T22:59:05.545Z,18.00
2023-01-12T23:02:27.681Z,15.15
2023-01-12T23:05:36.356Z,17.42
2023-01-12T23:08:38.760Z,15.75
2023-01-12T23:11:40.855Z,16.63
2023-01-12T23:14:42.993Z,15.93
2023-01-12T23:17:45.140Z,15.10
2023-01-12T23:20:49.259Z,15.00
2023-01-12T23:23:57.239Z,16.92
2023-01-12T23:26:59.451Z,16.98
2023-01-12T23:30:01.556Z,14.60
2023-01-12T23:33:05.311Z,14.77
2023-01-12T23:36:13.674Z,16.75
2023-01-12T23:39:16.269Z,17.45
2023-01-12T23:42:18.388Z,17.15
2023-01-12T23:45:20.510Z,17.92
2023-01-12T23:48:23.753Z,15.20
2023-01-12T23:51:28.189Z,16.73
2023-01-12T23:54:30.618Z,17.17
2023-01-12T23:57:33.876Z,17.88
